sensor_id;sensor_type;location;lat;lon;timestamp;P1;durP1;ratioP1;P2;durP2;ratioP2
72797;SDS011;61084;55.816;37.036;2024-01-15T00:00:44;8.27;;;3.80;;
72797;SDS011;61084;55.816;37.036;2024-01-15T00:03:10;6.38;;;3.15;;
72797;SDS011;61084;55.816;37.036;2024-01-15T00:05:37;10.02;;;3.92;;
72797;SDS011;61084;55.816;37.036;2024-01-15T00:08:03;15.15;;;3.80;;
72797;SDS011;61084;55.816;37.036;2024-01-15T00:10:30;9.63;;;3.58;;
72797;SDS011;61084;55.816;37.036;2024-01-15T00:12:56;9.82;;;4.32;;
72797;SDS011;61084;55.816;37.036;2024-01-15T00:15:22;12.48;;;4.55;;
72797;SDS011;61084;55.816;37.036;2024-01-15T00:17:48;10.27;;;3.97;;
72797;SDS011;61084;55.816;37.036;2024-01-15T00:20:13;12.45;;;4.40;;
72797;SDS011;61084;55.816;37.036;2024-01-15T00:22:39;13.18;;;4.65;;
72797;SDS011;61084;55.816;37.036;2024-01-15T00:25:05;10.13;;;3.72;;
72797;SDS011;61084;55.816;37.036;2024-01-15T00:27:32;11.98;;;4.43;;
72797;SDS011;61084;55.816;37.036;2024-01-15T00:29:58;10.68;;;4.03;;
72797;SDS011;61084;55.816;37.036;2024-01-15T00:32:23;12.43;;;4.07;;
72797;SDS011;61084;55.816;37.036;2024-01-15T00:34:49;10.98;;;4.50;;
72797;SDS011;61084;55.816;37.036;2024-01-15T00:37:16;9.10;;;3.92;;
72797;SDS011;61084;55.816;37.036;2024-01-15T00:39:43;9.55;;;4.20;;
72797;SDS011;61084;55.816;37.036;2024-01-15T00:42:09;10.35;;;4.28;;
72797;SDS011;61084;55.816;37.036;2024-01-15T00:44:35;12.73;;;4.97;;
72797;SDS011;61084;55.816;37.036;2024-01-15T00:47:01;16.85;;;4.60;;
72797;SDS011;61084;55.816;37.036;2024-01-15T00:49:27;7.72;;;3.42;;
72797;SDS011;61084;55.816;37.036;2024-01-15T00:51:53;15.48;;;5.30;;
72797;SDS011;61084;55.816;37.036;2024-01-15T00:54:19;16.27;;;5.97;;
72797;SDS011;61084;55.816;37.036;2024-01-15T00:56:45;16.75;;;5.40;;
72797;SDS011;61084;55.816;37.036;2024-01-15T00:59:11;12.70;;;5.00;;
72797;SDS011;61084;55.816;37.036;2024-01-15T01:01:41;10.07;;;4.05;;
72797;SDS011;61084;55.816;37.036;2024-01-15T01:04:12;11.35;;;4.28;;
72797;SDS011;61084;55.816;37.036;2024-01-15T01:06:38;9.13;;;4.53;;
72797;SDS011;61084;55.816;37.036;2024-01-15T01:09:04;9.68;;;3.85;;
72797;SDS011;61084;55.816;37.036;2024-01-15T01:11:30;12.82;;;3.88;;
72797;SDS011;61084;55.816;37.036;2024-01-15T01:13:56;12.07;;;4.35;;
72797;SDS011;61084;55.816;37.036;2024-01-15T01:16:22;11.32;;;5.38;;
72797;SDS011;61084;55.816;37.036;2024-01-15T01:18:48;9.45;;;4.00;;
72797;SDS011;61084;55.816;37.036;2024-01-15T01:21:14;10.75;;;4.20;;
72797;SDS011;61084;55.816;37.036;2024-01-15T01:23:40;7.88;;;3.10;;
72797;SDS011;61084;55.816;37.036;2024-01-15T01:26:06;7.47;;;4.13;;
72797;SDS011;61084;55.816;37.036;2024-01-15T01:28:32;9.63;;;3.88;;
72797;SDS011;61084;55.816;37.036;2024-01-15T01:30:57;10.95;;;4.60;;
72797;SDS011;61084;55.816;37.036;2024-01-15T01:33:23;10.45;;;5.10;;
72797;SDS011;61084;55.816;37.036;2024-01-15T01:35:49;10.43;;;4.38;;
72797;SDS011;61084;55.816;37.036;2024-01-15T01:38:15;10.02;;;4.18;;
72797;SDS011;61084;55.816;37.036;2024-01-15T01:40:41;11.40;;;4.53;;
72797;SDS011;61084;55.816;37.036;2024-01-15T01:43:08;10.70;;;4.88;;
72797;SDS011;61084;55.816;37.036;2024-01-15T01:45:35;10.80;;;5.22;;
72797;SDS011;61084;55.816;37.036;2024-01-15T01:48:00;11.15;;;4.97;;
72797;SDS011;61084;55.816;37.036;2024-01-15T01:50:28;14.52;;;5.65;;
72797;SDS011;61084;55.816;37.036;2024-01-15T01:52:55;11.77;;;4.63;;
72797;SDS011;61084;55.816;37.036;2024-01-15T01:55:21;13.38;;;5.55;;
72797;SDS011;61084;55.816;37.036;2024-01-15T01:57:52;14.68;;;5.43;;
72797;SDS011;61084;55.816;37.036;2024-01-15T02:00:18;12.32;;;5.18;;
72797;SDS011;61084;55.816;37.036;2024-01-15T02:02:44;12.82;;;4.97;;
72797;SDS011;61084;55.816;37.036;2024-01-15T02:05:10;14.48;;;5.65;;
72797;SDS011;61084;55.816;37.036;2024-01-15T02:07:39;10.85;;;4.50;;
72797;SDS011;61084;55.816;37.036;2024-01-15T02:10:06;10.85;;;4.22;;
72797;SDS011;61084;55.816;37.036;2024-01-15T02:12:32;13.27;;;5.85;;
72797;SDS011;61084;55.816;37.036;2024-01-15T02:14:58;13.23;;;5.18;;
72797;SDS011;61084;55.816;37.036;2024-01-15T02:17:24;15.15;;;5.55;;
72797;SDS011;61084;55.816;37.036;2024-01-15T02:19:50;16.85;;;5.45;;
72797;SDS011;61084;55.816;37.036;2024-01-15T02:22:16;11.82;;;5.05;;
72797;SDS011;61084;55.816;37.036;2024-01-15T02:24:42;10.60;;;4.95;;
72797;SDS011;61084;55.816;37.036;2024-01-15T02:27:08;12.85;;;4.70;;
72797;SDS011;61084;55.816;37.036;2024-01-15T02:29:34;11.85;;;5.53;;
72797;SDS011;61084;55.816;37.036;2024-01-15T02:32:04;13.68;;;5.20;;
72797;SDS011;61084;55.816;37.036;2024-01-15T02:34:33;12.55;;;5.68;;
72797;SDS011;61084;55.816;37.036;2024-01-15T02:36:59;12.05;;;5.30;;
72797;SDS011;61084;55.816;37.036;2024-01-15T02:39:25;12.20;;;5.20;;
72797;SDS011;61084;55.816;37.036;2024-01-15T02:41:51;12.50;;;5.32;;
72797;SDS011;61084;55.816;37.036;2024-01-15T02:44:17;11.95;;;5.15;;
72797;SDS011;61084;55.816;37.036;2024-01-15T02:46:43;14.02;;;4.97;;
72797;SDS011;61084;55.816;37.036;2024-01-15T02:49:08;16.63;;;5.63;;
72797;SDS011;61084;55.816;37.036;2024-01-15T02:51:34;13.25;;;5.38;;
72797;SDS011;61084;55.816;37.036;2024-01-15T02:54:00;10.05;;;4.88;;
72797;SDS011;61084;55.816;37.036;2024-01-15T02:56:26;12.73;;;5.57;;
72797;SDS011;61084;55.816;37.036;2024-01-15T02:58:52;12.52;;;4.85;;
72797;SDS011;61084;55.816;37.036;2024-01-15T03:01:18;13.82;;;5.20;;
72797;SDS011;61084;55.816;37.036;2024-01-15T03:03:45;12.23;;;5.60;;
72797;SDS011;61084;55.816;37.036;2024-01-15T03:06:11;15.07;;;5.90;;
72797;SDS011;61084;55.816;37.036;2024-01-15T03:08:37;14.38;;;5.90;;
72797;SDS011;61084;55.816;37.036;2024-01-15T03:11:03;9.40;;;4.95;;
72797;SDS011;61084;55.816;37.036;2024-01-15T03:13:29;10.60;;;5.30;;
72797;SDS011;61084;55.816;37.036;2024-01-15T03:15:55;11.75;;;5.05;;
72797;SDS011;61084;55.816;37.036;2024-01-15T03:18:20;11.38;;;5.15;;
72797;SDS011;61084;55.816;37.036;2024-01-15T03:20:46;12.65;;;5.65;;
72797;SDS011;61084;55.816;37.036;2024-01-15T03:23:12;14.85;;;5.45;;
72797;SDS011;61084;55.816;37.036;2024-01-15T03:25:38;14.60;;;5.43;;
72797;SDS011;61084;55.816;37.036;2024-01-15T03:28:04;12.63;;;5.78;;
72797;SDS011;61084;55.816;37.036;2024-01-15T03:30:30;15.85;;;6.30;;
72797;SDS011;61084;55.816;37.036;2024-01-15T03:32:56;14.20;;;6.65;;
72797;SDS011;61084;55.816;37.036;2024-01-15T03:35:22;16.02;;;6.63;;
72797;SDS011;61084;55.816;37.036;2024-01-15T03:37:48;19.58;;;6.22;;
72797;SDS011;61084;55.816;37.036;2024-01-15T03:40:14;14.73;;;5.40;;
72797;SDS011;61084;55.816;37.036;2024-01-15T03:42:40;16.52;;;5.70;;
72797;SDS011;61084;55.816;37.036;2024-01-15T03:45:06;13.70;;;5.63;;
72797;SDS011;61084;55.816;37.036;2024-01-15T03:47:32;14.45;;;6.43;;
72797;SDS011;61084;55.816;37.036;2024-01-15T03:49:58;15.00;;;5.85;;
72797;SDS011;61084;55.816;37.036;2024-01-15T03:52:24;13.50;;;5.57;;
72797;SDS011;61084;55.816;37.036;2024-01-15T03:54:49;15.35;;;6.38;;
72797;SDS011;61084;55.816;37.036;2024-01-15T03:57:15;14.10;;;6.03;;
72797;SDS011;61084;55.816;37.036;2024-01-15T03:59:41;11.70;;;6.35;;
72797;SDS011;61084;55.816;37.036;2024-01-15T04:02:07;15.20;;;5.93;;
72797;SDS011;61084;55.816;37.036;2024-01-15T04:04:33;14.27;;;5.50;;
72797;SDS011;61084;55.816;37.036;2024-01-15T04:06:59;15.98;;;6.32;;
72797;SDS011;61084;55.816;37.036;2024-01-15T04:09:25;16.23;;;6.55;;
72797;SDS011;61084;55.816;37.036;2024-01-15T04:11:51;14.77;;;6.25;;
72797;SDS011;61084;55.816;37.036;2024-01-15T04:14:17;15.38;;;6.25;;
72797;SDS011;61084;55.816;37.036;2024-01-15T04:16:43;12.80;;;5.95;;
72797;SDS011;61084;55.816;37.036;2024-01-15T04:19:09;13.98;;;6.25;;
72797;SDS011;61084;55.816;37.036;2024-01-15T04:21:35;13.77;;;5.95;;
72797;SDS011;61084;55.816;37.036;2024-01-15T04:24:00;14.02;;;6.35;;
72797;SDS011;61084;55.816;37.036;2024-01-15T04:26:26;16.85;;;6.55;;
72797;SDS011;61084;55.816;37.036;2024-01-15T04:28:52;13.73;;;5.93;;
72797;SDS011;61084;55.816;37.036;2024-01-15T04:31:24;16.80;;;6.70;;
72797;SDS011;61084;55.816;37.036;2024-01-15T04:33:52;13.82;;;6.55;;
72797;SDS011;61084;55.816;37.036;2024-01-15T04:36:18;19.88;;;7.05;;
72797;SDS011;61084;55.816;37.036;2024-01-15T04:38:44;14.13;;;6.47;;
72797;SDS011;61084;55.816;37.036;2024-01-15T04:41:13;17.02;;;6.55;;
72797;SDS011;61084;55.816;37.036;2024-01-15T04:43:39;16.83;;;6.38;;
72797;SDS011;61084;55.816;37.036;2024-01-15T04:46:06;16.17;;;6.50;;
72797;SDS011;61084;55.816;37.036;2024-01-15T04:48:33;17.63;;;6.47;;
72797;SDS011;61084;55.816;37.036;2024-01-15T04:50:59;17.58;;;7.15;;
72797;SDS011;61084;55.816;37.036;2024-01-15T04:53:25;15.98;;;6.32;;
72797;SDS011;61084;55.816;37.036;2024-01-15T04:55:51;14.52;;;6.60;;
72797;SDS011;61084;55.816;37.036;2024-01-15T04:58:17;14.35;;;6.07;;
72797;SDS011;61084;55.816;37.036;2024-01-15T05:00:43;13.95;;;6.88;;
72797;SDS011;61084;55.816;37.036;2024-01-15T05:03:09;15.88;;;6.28;;
72797;SDS011;61084;55.816;37.036;2024-01-15T05:05:35;12.20;;;5.70;;
72797;SDS011;61084;55.816;37.036;2024-01-15T05:08:01;14.70;;;6.55;;
72797;SDS011;61084;55.816;37.036;2024-01-15T05:10:27;15.05;;;6.72;;
72797;SDS011;61084;55.816;37.036;2024-01-15T05:12:53;18.33;;;7.28;;
72797;SDS011;61084;55.816;37.036;2024-01-15T05:15:19;17.92;;;7.13;;
72797;SDS011;61084;55.816;37.036;2024-01-15T05:17:45;19.77;;;7.47;;
72797;SDS011;61084;55.816;37.036;2024-01-15T05:20:11;17.60;;;7.53;;
72797;SDS011;61084;55.816;37.036;2024-01-15T05:22:37;17.25;;;7.07;;
72797;SDS011;61084;55.816;37.036;2024-01-15T05:25:03;16.05;;;6.60;;
72797;SDS011;61084;55.816;37.036;2024-01-15T05:27:29;17.52;;;7.78;;
72797;SDS011;61084;55.816;37.036;2024-01-15T05:29:55;20.95;;;8.25;;
72797;SDS011;61084;55.816;37.036;2024-01-15T05:32:21;16.40;;;6.78;;
72797;SDS011;61084;55.816;37.036;2024-01-15T05:34:47;17.65;;;7.10;;
72797;SDS011;61084;55.816;37.036;2024-01-15T05:37:16;16.65;;;6.70;;
72797;SDS011;61084;55.816;37.036;2024-01-15T05:39:42;18.00;;;7.38;;
72797;SDS011;61084;55.816;37.036;2024-01-15T05:42:07;13.93;;;6.00;;
72797;SDS011;61084;55.816;37.036;2024-01-15T05:44:33;21.38;;;6.68;;
72797;SDS011;61084;55.816;37.036;2024-01-15T05:46:59;16.80;;;6.68;;
72797;SDS011;61084;55.816;37.036;2024-01-15T05:49:25;16.65;;;6.90;;
72797;SDS011;61084;55.816;37.036;2024-01-15T05:51:51;12.85;;;6.25;;
72797;SDS011;61084;55.816;37.036;2024-01-15T05:54:18;14.73;;;6.85;;
72797;SDS011;61084;55.816;37.036;2024-01-15T05:56:45;18.80;;;6.93;;
72797;SDS011;61084;55.816;37.036;2024-01-15T05:59:11;18.48;;;7.40;;
72797;SDS011;61084;55.816;37.036;2024-01-15T06:01:37;18.65;;;7.07;;
72797;SDS011;61084;55.816;37.036;2024-01-15T06:04:03;18.40;;;7.13;;
72797;SDS011;61084;55.816;37.036;2024-01-15T06:06:29;12.18;;;5.68;;
72797;SDS011;61084;55.816;37.036;2024-01-15T06:08:56;17.02;;;6.65;;
72797;SDS011;61084;55.816;37.036;2024-01-15T06:11:29;14.93;;;6.50;;
72797;SDS011;61084;55.816;37.036;2024-01-15T06:13:56;17.02;;;7.55;;
72797;SDS011;61084;55.816;37.036;2024-01-15T06:16:21;15.18;;;6.03;;
72797;SDS011;61084;55.816;37.036;2024-01-15T06:18:49;19.15;;;7.22;;
72797;SDS011;61084;55.816;37.036;2024-01-15T06:21:15;12.90;;;6.43;;
72797;SDS011;61084;55.816;37.036;2024-01-15T06:23:42;14.65;;;6.88;;
72797;SDS011;61084;55.816;37.036;2024-01-15T06:26:07;17.70;;;6.82;;
72797;SDS011;61084;55.816;37.036;2024-01-15T06:28:34;18.45;;;6.85;;
72797;SDS011;61084;55.816;37.036;2024-01-15T06:31:00;17.10;;;7.35;;
72797;SDS011;61084;55.816;37.036;2024-01-15T06:33:25;14.05;;;6.88;;
72797;SDS011;61084;55.816;37.036;2024-01-15T06:35:51;20.60;;;6.93;;
72797;SDS011;61084;55.816;37.036;2024-01-15T06:38:17;17.48;;;7.65;;
72797;SDS011;61084;55.816;37.036;2024-01-15T06:40:43;17.20;;;6.65;;
72797;SDS011;61084;55.816;37.036;2024-01-15T06:43:11;11.57;;;5.78;;
72797;SDS011;61084;55.816;37.036;2024-01-15T06:45:38;13.60;;;6.55;;
72797;SDS011;61084;55.816;37.036;2024-01-15T06:48:05;18.55;;;7.95;;
72797;SDS011;61084;55.816;37.036;2024-01-15T06:50:34;14.95;;;6.43;;
72797;SDS011;61084;55.816;37.036;2024-01-15T06:53:00;16.33;;;6.88;;
72797;SDS011;61084;55.816;37.036;2024-01-15T06:55:26;15.60;;;6.32;;
72797;SDS011;61084;55.816;37.036;2024-01-15T06:57:53;15.85;;;7.50;;
72797;SDS011;61084;55.816;37.036;2024-01-15T07:00:19;15.20;;;6.97;;
72797;SDS011;61084;55.816;37.036;2024-01-15T07:02:45;16.77;;;6.63;;
72797;SDS011;61084;55.816;37.036;2024-01-15T07:05:11;16.17;;;7.45;;
72797;SDS011;61084;55.816;37.036;2024-01-15T07:07:37;15.00;;;6.88;;
72797;SDS011;61084;55.816;37.036;2024-01-15T07:10:03;16.42;;;6.43;;
72797;SDS011;61084;55.816;37.036;2024-01-15T07:12:31;18.50;;;7.60;;
72797;SDS011;61084;55.816;37.036;2024-01-15T07:14:56;16.67;;;7.25;;
72797;SDS011;61084;55.816;37.036;2024-01-15T07:17:22;18.48;;;7.75;;
72797;SDS011;61084;55.816;37.036;2024-01-15T07:19:48;14.13;;;7.03;;
72797;SDS011;61084;55.816;37.036;2024-01-15T07:22:14;14.88;;;7.05;;
72797;SDS011;61084;55.816;37.036;2024-01-15T07:24:43;15.15;;;6.60;;
72797;SDS011;61084;55.816;37.036;2024-01-15T07:27:09;18.52;;;6.88;;
72797;SDS011;61084;55.816;37.036;2024-01-15T07:29:35;15.52;;;6.35;;
72797;SDS011;61084;55.816;37.036;2024-01-15T07:32:03;19.13;;;7.43;;
72797;SDS011;61084;55.816;37.036;2024-01-15T07:34:30;16.42;;;7.32;;
72797;SDS011;61084;55.816;37.036;2024-01-15T07:36:57;16.98;;;6.57;;
72797;SDS011;61084;55.816;37.036;2024-01-15T07:39:23;13.40;;;6.45;;
72797;SDS011;61084;55.816;37.036;2024-01-15T07:41:50;14.73;;;6.47;;
72797;SDS011;61084;55.816;37.036;2024-01-15T07:44:17;17.20;;;6.97;;
72797;SDS011;61084;55.816;37.036;2024-01-15T07:46:46;38.50;;;16.00;;
72797;SDS011;61084;55.816;37.036;2024-01-15T07:49:12;28.63;;;14.07;;
72797;SDS011;61084;55.816;37.036;2024-01-15T07:51:39;14.50;;;6.55;;
72797;SDS011;61084;55.816;37.036;2024-01-15T07:54:06;20.90;;;9.30;;
72797;SDS011;61084;55.816;37.036;2024-01-15T07:56:33;18.13;;;9.10;;
72797;SDS011;61084;55.816;37.036;2024-01-15T07:58:59;18.77;;;8.18;;
72797;SDS011;61084;55.816;37.036;2024-01-15T08:01:25;14.38;;;7.20;;
72797;SDS011;61084;55.816;37.036;2024-01-15T08:03:51;19.02;;;7.97;;
72797;SDS011;61084;55.816;37.036;2024-01-15T08:06:17;17.17;;;7.70;;
72797;SDS011;61084;55.816;37.036;2024-01-15T08:08:43;15.70;;;7.13;;
72797;SDS011;61084;55.816;37.036;2024-01-15T08:11:09;17.52;;;7.30;;
72797;SDS011;61084;55.816;37.036;2024-01-15T08:13:35;17.67;;;7.78;;
72797;SDS011;61084;55.816;37.036;2024-01-15T08:16:01;12.82;;;6.40;;
72797;SDS011;61084;55.816;37.036;2024-01-15T08:18:27;20.85;;;9.23;;
72797;SDS011;61084;55.816;37.036;2024-01-15T08:20:53;13.57;;;6.82;;
72797;SDS011;61084;55.816;37.036;2024-01-15T08:23:19;17.38;;;7.53;;
72797;SDS011;61084;55.816;37.036;2024-01-15T08:25:45;12.57;;;6.13;;
72797;SDS011;61084;55.816;37.036;2024-01-15T08:28:11;16.15;;;6.78;;
72797;SDS011;61084;55.816;37.036;2024-01-15T08:30:37;16.10;;;7.50;;
72797;SDS011;61084;55.816;37.036;2024-01-15T08:33:03;17.20;;;7.95;;
72797;SDS011;61084;55.816;37.036;2024-01-15T08:35:29;14.60;;;6.82;;
72797;SDS011;61084;55.816;37.036;2024-01-15T08:37:55;17.13;;;7.47;;
72797;SDS011;61084;55.816;37.036;2024-01-15T08:40:21;17.98;;;7.28;;
72797;SDS011;61084;55.816;37.036;2024-01-15T08:42:47;14.50;;;7.00;;
72797;SDS011;61084;55.816;37.036;2024-01-15T08:45:13;15.63;;;7.28;;
72797;SDS011;61084;55.816;37.036;2024-01-15T08:47:39;17.50;;;6.75;;
72797;SDS011;61084;55.816;37.036;2024-01-15T08:50:05;17.80;;;7.47;;
72797;SDS011;61084;55.816;37.036;2024-01-15T08:52:36;15.35;;;7.53;;
72797;SDS011;61084;55.816;37.036;2024-01-15T08:55:03;17.17;;;7.88;;
72797;SDS011;61084;55.816;37.036;2024-01-15T08:57:30;17.60;;;7.03;;
72797;SDS011;61084;55.816;37.036;2024-01-15T08:59:56;12.55;;;6.32;;
72797;SDS011;61084;55.816;37.036;2024-01-15T09:02:22;15.70;;;7.05;;
72797;SDS011;61084;55.816;37.036;2024-01-15T09:04:48;15.15;;;6.55;;
72797;SDS011;61084;55.816;37.036;2024-01-15T09:07:14;17.40;;;6.65;;
72797;SDS011;61084;55.816;37.036;2024-01-15T09:09:40;12.13;;;6.15;;
72797;SDS011;61084;55.816;37.036;2024-01-15T09:12:07;15.48;;;6.13;;
72797;SDS011;61084;55.816;37.036;2024-01-15T09:14:33;13.90;;;6.57;;
72797;SDS011;61084;55.816;37.036;2024-01-15T09:16:59;16.42;;;6.70;;
72797;SDS011;61084;55.816;37.036;2024-01-15T09:19:25;14.05;;;6.43;;
72797;SDS011;61084;55.816;37.036;2024-01-15T09:21:51;13.95;;;6.18;;
72797;SDS011;61084;55.816;37.036;2024-01-15T09:24:17;15.35;;;6.55;;
72797;SDS011;61084;55.816;37.036;2024-01-15T09:26:43;13.35;;;6.35;;
72797;SDS011;61084;55.816;37.036;2024-01-15T09:29:10;15.27;;;6.07;;
72797;SDS011;61084;55.816;37.036;2024-01-15T09:31:36;16.30;;;6.55;;
72797;SDS011;61084;55.816;37.036;2024-01-15T09:34:02;13.82;;;6.25;;
72797;SDS011;61084;55.816;37.036;2024-01-15T09:36:28;12.15;;;5.85;;
72797;SDS011;61084;55.816;37.036;2024-01-15T09:38:54;13.20;;;5.70;;
72797;SDS011;61084;55.816;37.036;2024-01-15T09:41:19;13.20;;;6.82;;
72797;SDS011;61084;55.816;37.036;2024-01-15T09:43:45;16.67;;;6.05;;
72797;SDS011;61084;55.816;37.036;2024-01-15T09:46:12;14.02;;;6.00;;
72797;SDS011;61084;55.816;37.036;2024-01-15T09:48:39;12.70;;;6.13;;
72797;SDS011;61084;55.816;37.036;2024-01-15T09:51:06;14.93;;;6.97;;
72797;SDS011;61084;55.816;37.036;2024-01-15T09:53:33;14.23;;;6.22;;
72797;SDS011;61084;55.816;37.036;2024-01-15T09:56:01;14.05;;;6.68;;
72797;SDS011;61084;55.816;37.036;2024-01-15T09:58:28;14.38;;;6.57;;
72797;SDS011;61084;55.816;37.036;2024-01-15T10:00:55;14.00;;;6.40;;
72797;SDS011;61084;55.816;37.036;2024-01-15T10:03:22;13.02;;;6.35;;
72797;SDS011;61084;55.816;37.036;2024-01-15T10:05:48;16.33;;;6.38;;
72797;SDS011;61084;55.816;37.036;2024-01-15T10:08:14;12.30;;;6.03;;
72797;SDS011;61084;55.816;37.036;2024-01-15T10:10:40;13.45;;;6.22;;
72797;SDS011;61084;55.816;37.036;2024-01-15T10:13:07;13.30;;;5.88;;
72797;SDS011;61084;55.816;37.036;2024-01-15T10:15:34;13.43;;;6.55;;
72797;SDS011;61084;55.816;37.036;2024-01-15T10:18:02;11.95;;;6.07;;
72797;SDS011;61084;55.816;37.036;2024-01-15T10:20:29;15.13;;;6.75;;
72797;SDS011;61084;55.816;37.036;2024-01-15T10:22:57;14.55;;;6.57;;
72797;SDS011;61084;55.816;37.036;2024-01-15T10:25:24;14.07;;;6.13;;
72797;SDS011;61084;55.816;37.036;2024-01-15T10:28:09;14.38;;;6.05;;
72797;SDS011;61084;55.816;37.036;2024-01-15T10:30:35;13.93;;;6.00;;
72797;SDS011;61084;55.816;37.036;2024-01-15T10:33:02;12.35;;;5.97;;
72797;SDS011;61084;55.816;37.036;2024-01-15T10:37:59;15.13;;;5.88;;
72797;SDS011;61084;55.816;37.036;2024-01-15T10:40:26;12.20;;;5.88;;
72797;SDS011;61084;55.816;37.036;2024-01-15T10:42:52;15.45;;;6.80;;
72797;SDS011;61084;55.816;37.036;2024-01-15T10:45:19;12.73;;;6.05;;
72797;SDS011;61084;55.816;37.036;2024-01-15T10:47:45;12.73;;;6.43;;
72797;SDS011;61084;55.816;37.036;2024-01-15T10:50:11;14.65;;;6.70;;
72797;SDS011;61084;55.816;37.036;2024-01-15T10:52:38;13.73;;;7.00;;
72797;SDS011;61084;55.816;37.036;2024-01-15T10:55:08;14.82;;;6.63;;
72797;SDS011;61084;55.816;37.036;2024-01-15T10:57:36;14.27;;;6.43;;
72797;SDS011;61084;55.816;37.036;2024-01-15T11:02:31;18.48;;;5.25;;
72797;SDS011;61084;55.816;37.036;2024-01-15T11:05:00;15.77;;;6.78;;
72797;SDS011;61084;55.816;37.036;2024-01-15T11:07:26;16.73;;;6.68;;
72797;SDS011;61084;55.816;37.036;2024-01-15T11:09:52;13.40;;;6.63;;
72797;SDS011;61084;55.816;37.036;2024-01-15T11:12:18;14.38;;;6.68;;
72797;SDS011;61084;55.816;37.036;2024-01-15T11:14:48;14.73;;;6.80;;
72797;SDS011;61084;55.816;37.036;2024-01-15T11:17:16;17.40;;;6.95;;
72797;SDS011;61084;55.816;37.036;2024-01-15T11:19:45;14.75;;;6.47;;
72797;SDS011;61084;55.816;37.036;2024-01-15T11:24:56;14.93;;;6.95;;
72797;SDS011;61084;55.816;37.036;2024-01-15T11:30:29;13.80;;;6.25;;
72797;SDS011;61084;55.816;37.036;2024-01-15T11:32:55;12.65;;;5.80;;
72797;SDS011;61084;55.816;37.036;2024-01-15T11:35:21;15.40;;;6.72;;
72797;SDS011;61084;55.816;37.036;2024-01-15T11:40:17;14.57;;;6.53;;
72797;SDS011;61084;55.816;37.036;2024-01-15T11:42:45;13.70;;;6.13;;
72797;SDS011;61084;55.816;37.036;2024-01-15T11:45:13;18.48;;;7.00;;
72797;SDS011;61084;55.816;37.036;2024-01-15T11:50:33;17.15;;;7.07;;
72797;SDS011;61084;55.816;37.036;2024-01-15T11:53:00;16.25;;;6.93;;
72797;SDS011;61084;55.816;37.036;2024-01-15T11:55:34;15.48;;;6.35;;
72797;SDS011;61084;55.816;37.036;2024-01-15T11:58:02;16.27;;;6.38;;
72797;SDS011;61084;55.816;37.036;2024-01-15T12:00:32;13.23;;;6.55;;
72797;SDS011;61084;55.816;37.036;2024-01-15T12:02:58;17.25;;;6.95;;
72797;SDS011;61084;55.816;37.036;2024-01-15T12:05:24;15.75;;;6.60;;
72797;SDS011;61084;55.816;37.036;2024-01-15T12:07:50;20.15;;;7.15;;
72797;SDS011;61084;55.816;37.036;2024-01-15T12:10:18;17.40;;;6.65;;
72797;SDS011;61084;55.816;37.036;2024-01-15T12:12:49;14.77;;;6.35;;
72797;SDS011;61084;55.816;37.036;2024-01-15T12:15:16;15.80;;;6.57;;
72797;SDS011;61084;55.816;37.036;2024-01-15T12:17:42;17.20;;;7.22;;
72797;SDS011;61084;55.816;37.036;2024-01-15T12:20:08;15.48;;;6.10;;
72797;SDS011;61084;55.816;37.036;2024-01-15T12:22:35;12.75;;;5.80;;
72797;SDS011;61084;55.816;37.036;2024-01-15T12:25:01;15.90;;;6.78;;
72797;SDS011;61084;55.816;37.036;2024-01-15T12:27:28;16.65;;;6.97;;
72797;SDS011;61084;55.816;37.036;2024-01-15T12:29:54;19.75;;;6.80;;
72797;SDS011;61084;55.816;37.036;2024-01-15T12:32:20;14.55;;;6.15;;
72797;SDS011;61084;55.816;37.036;2024-01-15T12:34:49;16.73;;;6.70;;
72797;SDS011;61084;55.816;37.036;2024-01-15T12:37:17;14.10;;;6.30;;
72797;SDS011;61084;55.816;37.036;2024-01-15T12:39:45;16.70;;;7.18;;
72797;SDS011;61084;55.816;37.036;2024-01-15T12:42:11;14.35;;;6.70;;
72797;SDS011;61084;55.816;37.036;2024-01-15T12:44:37;16.73;;;7.30;;
72797;SDS011;61084;55.816;37.036;2024-01-15T12:47:06;14.90;;;7.40;;
72797;SDS011;61084;55.816;37.036;2024-01-15T12:49:32;16.95;;;7.35;;
72797;SDS011;61084;55.816;37.036;2024-01-15T12:51:59;17.45;;;7.13;;
72797;SDS011;61084;55.816;37.036;2024-01-15T12:54:25;14.93;;;7.30;;
72797;SDS011;61084;55.816;37.036;2024-01-15T12:56:52;16.33;;;7.63;;
72797;SDS011;61084;55.816;37.036;2024-01-15T12:59:18;14.70;;;6.75;;
72797;SDS011;61084;55.816;37.036;2024-01-15T13:01:45;16.05;;;6.47;;
72797;SDS011;61084;55.816;37.036;2024-01-15T13:06:46;14.27;;;5.65;;
72797;SDS011;61084;55.816;37.036;2024-01-15T13:09:12;18.33;;;7.00;;
72797;SDS011;61084;55.816;37.036;2024-01-15T13:11:38;18.10;;;7.32;;
72797;SDS011;61084;55.816;37.036;2024-01-15T13:14:03;17.70;;;6.55;;
72797;SDS011;61084;55.816;37.036;2024-01-15T13:16:29;15.65;;;6.88;;
72797;SDS011;61084;55.816;37.036;2024-01-15T13:18:55;16.30;;;6.82;;
72797;SDS011;61084;55.816;37.036;2024-01-15T13:21:22;18.15;;;7.18;;
72797;SDS011;61084;55.816;37.036;2024-01-15T13:23:48;18.80;;;7.03;;
72797;SDS011;61084;55.816;37.036;2024-01-15T13:26:14;20.05;;;7.40;;
72797;SDS011;61084;55.816;37.036;2024-01-15T13:28:40;20.15;;;8.50;;
72797;SDS011;61084;55.816;37.036;2024-01-15T13:31:06;18.35;;;7.55;;
72797;SDS011;61084;55.816;37.036;2024-01-15T13:33:32;21.20;;;8.07;;
72797;SDS011;61084;55.816;37.036;2024-01-15T13:35:58;16.17;;;7.97;;
72797;SDS011;61084;55.816;37.036;2024-01-15T13:38:23;14.93;;;7.57;;
72797;SDS011;61084;55.816;37.036;2024-01-15T13:40:50;16.35;;;6.85;;
72797;SDS011;61084;55.816;37.036;2024-01-15T13:43:16;17.05;;;7.65;;
72797;SDS011;61084;55.816;37.036;2024-01-15T13:45:44;19.63;;;7.15;;
72797;SDS011;61084;55.816;37.036;2024-01-15T13:48:11;15.55;;;7.55;;
72797;SDS011;61084;55.816;37.036;2024-01-15T13:50:37;16.23;;;7.15;;
72797;SDS011;61084;55.816;37.036;2024-01-15T13:53:03;19.17;;;8.75;;
72797;SDS011;61084;55.816;37.036;2024-01-15T13:55:29;16.70;;;8.13;;
72797;SDS011;61084;55.816;37.036;2024-01-15T13:57:56;16.23;;;7.47;;
72797;SDS011;61084;55.816;37.036;2024-01-15T14:00:21;16.55;;;7.32;;
72797;SDS011;61084;55.816;37.036;2024-01-15T14:02:49;17.85;;;8.82;;
72797;SDS011;61084;55.816;37.036;2024-01-15T14:05:14;64.30;;;24.95;;
72797;SDS011;61084;55.816;37.036;2024-01-15T14:07:41;37.85;;;14.82;;
72797;SDS011;61084;55.816;37.036;2024-01-15T14:10:09;22.63;;;11.68;;
72797;SDS011;61084;55.816;37.036;2024-01-15T14:12:35;23.95;;;10.85;;
72797;SDS011;61084;55.816;37.036;2024-01-15T14:15:02;20.92;;;11.25;;
72797;SDS011;61084;55.816;37.036;2024-01-15T14:17:30;68.43;;;29.77;;
72797;SDS011;61084;55.816;37.036;2024-01-15T14:19:57;37.10;;;16.33;;
72797;SDS011;61084;55.816;37.036;2024-01-15T14:22:23;39.25;;;17.08;;
72797;SDS011;61084;55.816;37.036;2024-01-15T14:25:08;24.88;;;11.63;;
72797;SDS011;61084;55.816;37.036;2024-01-15T14:27:34;17.63;;;9.18;;
72797;SDS011;61084;55.816;37.036;2024-01-15T14:30:00;18.58;;;8.65;;
72797;SDS011;61084;55.816;37.036;2024-01-15T14:32:26;21.35;;;9.32;;
72797;SDS011;61084;55.816;37.036;2024-01-15T14:34:52;27.45;;;9.90;;